sensor_id;sensor_type;location;lat;lon;timestamp;P1;durP1;ratioP1;P2;durP2;ratioP2
39540;SDS011;25219;52.244;21.006;2024-01-15T00:01:45;11.83;;;6.03;;
39540;SDS011;25219;52.244;21.006;2024-01-15T00:04:10;12.53;;;6.77;;
39540;SDS011;25219;52.244;21.006;2024-01-15T00:06:35;13.88;;;6.85;;
39540;SDS011;25219;52.244;21.006;2024-01-15T00:09:01;12.57;;;6.82;;
39540;SDS011;25219;52.244;21.006;2024-01-15T00:11:26;10.48;;;5.65;;
39540;SDS011;25219;52.244;21.006;2024-01-15T00:13:52;14.33;;;6.63;;
39540;SDS011;25219;52.244;21.006;2024-01-15T00:16:17;12.35;;;6.55;;
39540;SDS011;25219;52.244;21.006;2024-01-15T00:18:42;12.30;;;7.20;;
39540;SDS011;25219;52.244;21.006;2024-01-15T00:21:07;11.60;;;6.77;;
39540;SDS011;25219;52.244;21.006;2024-01-15T00:23:32;12.40;;;6.97;;
39540;SDS011;25219;52.244;21.006;2024-01-15T00:25:57;13.65;;;6.75;;
39540;SDS011;25219;52.244;21.006;2024-01-15T00:28:23;12.47;;;7.07;;
39540;SDS011;25219;52.244;21.006;2024-01-15T00:30:48;12.60;;;6.82;;
39540;SDS011;25219;52.244;21.006;2024-01-15T00:33:13;22.83;;;8.02;;
39540;SDS011;25219;52.244;21.006;2024-01-15T00:35:39;12.35;;;7.35;;
39540;SDS011;25219;52.244;21.006;2024-01-15T00:38:04;17.23;;;6.60;;
39540;SDS011;25219;52.244;21.006;2024-01-15T00:40:30;11.73;;;6.78;;
39540;SDS011;25219;52.244;21.006;2024-01-15T00:42:55;13.18;;;6.93;;
39540;SDS011;25219;52.244;21.006;2024-01-15T00:45:20;15.83;;;6.97;;
39540;SDS011;25219;52.244;21.006;2024-01-15T00:47:45;11.45;;;6.47;;
39540;SDS011;25219;52.244;21.006;2024-01-15T00:50:11;12.43;;;6.88;;
39540;SDS011;25219;52.244;21.006;2024-01-15T00:52:36;12.47;;;6.97;;
39540;SDS011;25219;52.244;21.006;2024-01-15T00:55:01;15.85;;;6.65;;
39540;SDS011;25219;52.244;21.006;2024-01-15T00:57:26;12.68;;;6.95;;
39540;SDS011;25219;52.244;21.006;2024-01-15T00:59:51;14.40;;;6.90;;
39540;SDS011;25219;52.244;21.006;2024-01-15T01:02:17;16.43;;;6.83;;
39540;SDS011;25219;52.244;21.006;2024-01-15T01:04:42;11.97;;;6.83;;
39540;SDS011;25219;52.244;21.006;2024-01-15T01:07:07;13.82;;;6.70;;
39540;SDS011;25219;52.244;21.006;2024-01-15T01:09:32;12.27;;;7.27;;
39540;SDS011;25219;52.244;21.006;2024-01-15T01:11:58;15.00;;;7.32;;
39540;SDS011;25219;52.244;21.006;2024-01-15T01:14:23;16.90;;;7.55;;
39540;SDS011;25219;52.244;21.006;2024-01-15T01:16:48;12.13;;;7.10;;
39540;SDS011;25219;52.244;21.006;2024-01-15T01:19:14;13.30;;;7.25;;
39540;SDS011;25219;52.244;21.006;2024-01-15T01:21:39;11.05;;;6.55;;
39540;SDS011;25219;52.244;21.006;2024-01-15T01:24:05;13.02;;;7.15;;
39540;SDS011;25219;52.244;21.006;2024-01-15T01:26:30;12.27;;;7.00;;
39540;SDS011;25219;52.244;21.006;2024-01-15T01:28:55;14.35;;;7.70;;
39540;SDS011;25219;52.244;21.006;2024-01-15T01:31:21;17.13;;;7.78;;
39540;SDS011;25219;52.244;21.006;2024-01-15T01:33:46;13.40;;;7.55;;
39540;SDS011;25219;52.244;21.006;2024-01-15T01:36:11;15.30;;;7.55;;
39540;SDS011;25219;52.244;21.006;2024-01-15T01:38:37;19.15;;;9.00;;
39540;SDS011;25219;52.244;21.006;2024-01-15T01:41:02;14.88;;;7.75;;
39540;SDS011;25219;52.244;21.006;2024-01-15T01:43:28;16.27;;;8.25;;
39540;SDS011;25219;52.244;21.006;2024-01-15T01:45:54;19.97;;;8.03;;
39540;SDS011;25219;52.244;21.006;2024-01-15T01:48:20;16.30;;;8.32;;
39540;SDS011;25219;52.244;21.006;2024-01-15T01:50:46;15.50;;;9.02;;
39540;SDS011;25219;52.244;21.006;2024-01-15T01:53:11;16.65;;;8.73;;
39540;SDS011;25219;52.244;21.006;2024-01-15T01:55:36;15.73;;;7.97;;
39540;SDS011;25219;52.244;21.006;2024-01-15T01:58:03;16.30;;;8.77;;
39540;SDS011;25219;52.244;21.006;2024-01-15T02:00:28;15.75;;;8.88;;
39540;SDS011;25219;52.244;21.006;2024-01-15T02:02:55;16.35;;;9.48;;
39540;SDS011;25219;52.244;21.006;2024-01-15T02:05:20;19.55;;;8.80;;
39540;SDS011;25219;52.244;21.006;2024-01-15T02:07:46;13.98;;;8.00;;
39540;SDS011;25219;52.244;21.006;2024-01-15T02:10:12;19.08;;;8.73;;
39540;SDS011;25219;52.244;21.006;2024-01-15T02:12:37;15.20;;;8.93;;
39540;SDS011;25219;52.244;21.006;2024-01-15T02:15:02;17.98;;;8.70;;
39540;SDS011;25219;52.244;21.006;2024-01-15T02:17:28;16.63;;;8.25;;
39540;SDS011;25219;52.244;21.006;2024-01-15T02:19:53;20.13;;;9.23;;
39540;SDS011;25219;52.244;21.006;2024-01-15T02:22:18;12.20;;;7.77;;
39540;SDS011;25219;52.244;21.006;2024-01-15T02:24:43;14.97;;;7.77;;
39540;SDS011;25219;52.244;21.006;2024-01-15T02:27:09;19.50;;;9.27;;
39540;SDS011;25219;52.244;21.006;2024-01-15T02:29:34;16.33;;;8.10;;
39540;SDS011;25219;52.244;21.006;2024-01-15T02:31:59;17.60;;;8.90;;
39540;SDS011;25219;52.244;21.006;2024-01-15T02:34:31;16.95;;;8.20;;
39540;SDS011;25219;52.244;21.006;2024-01-15T02:36:56;16.90;;;8.85;;
39540;SDS011;25219;52.244;21.006;2024-01-15T02:39:21;16.47;;;9.00;;
39540;SDS011;25219;52.244;21.006;2024-01-15T02:41:46;19.73;;;8.80;;
39540;SDS011;25219;52.244;21.006;2024-01-15T02:44:12;20.48;;;9.43;;
39540;SDS011;25219;52.244;21.006;2024-01-15T02:46:37;16.50;;;8.50;;
39540;SDS011;25219;52.244;21.006;2024-01-15T02:49:02;17.23;;;8.90;;
39540;SDS011;25219;52.244;21.006;2024-01-15T02:51:27;15.87;;;8.57;;
39540;SDS011;25219;52.244;21.006;2024-01-15T02:53:52;15.07;;;8.25;;
39540;SDS011;25219;52.244;21.006;2024-01-15T02:56:18;19.23;;;8.43;;
39540;SDS011;25219;52.244;21.006;2024-01-15T02:58:43;21.50;;;9.57;;
39540;SDS011;25219;52.244;21.006;2024-01-15T03:01:08;20.10;;;8.83;;
39540;SDS011;25219;52.244;21.006;2024-01-15T03:03:33;17.00;;;8.38;;
39540;SDS011;25219;52.244;21.006;2024-01-15T03:05:58;18.77;;;10.18;;
39540;SDS011;25219;52.244;21.006;2024-01-15T03:08:24;15.43;;;8.50;;
39540;SDS011;25219;52.244;21.006;2024-01-15T03:10:49;16.30;;;9.27;;
39540;SDS011;25219;52.244;21.006;2024-01-15T03:13:14;19.85;;;9.32;;
39540;SDS011;25219;52.244;21.006;2024-01-15T03:15:39;16.70;;;9.20;;
39540;SDS011;25219;52.244;21.006;2024-01-15T03:18:04;18.60;;;9.50;;
39540;SDS011;25219;52.244;21.006;2024-01-15T03:20:30;20.25;;;9.07;;
39540;SDS011;25219;52.244;21.006;2024-01-15T03:22:56;19.08;;;10.02;;
39540;SDS011;25219;52.244;21.006;2024-01-15T03:25:21;18.00;;;8.93;;
39540;SDS011;25219;52.244;21.006;2024-01-15T03:27:46;17.23;;;9.15;;
39540;SDS011;25219;52.244;21.006;2024-01-15T03:30:11;14.67;;;8.40;;
39540;SDS011;25219;52.244;21.006;2024-01-15T03:32:37;18.40;;;8.70;;
39540;SDS011;25219;52.244;21.006;2024-01-15T03:35:02;17.55;;;9.50;;
39540;SDS011;25219;52.244;21.006;2024-01-15T03:37:27;17.38;;;9.50;;
39540;SDS011;25219;52.244;21.006;2024-01-15T03:39:52;20.13;;;10.00;;
39540;SDS011;25219;52.244;21.006;2024-01-15T03:42:18;23.70;;;9.90;;
39540;SDS011;25219;52.244;21.006;2024-01-15T03:44:43;18.52;;;8.90;;
39540;SDS011;25219;52.244;21.006;2024-01-15T03:47:08;15.40;;;9.00;;
39540;SDS011;25219;52.244;21.006;2024-01-15T03:49:33;19.07;;;9.80;;
39540;SDS011;25219;52.244;21.006;2024-01-15T03:51:58;20.33;;;9.43;;
39540;SDS011;25219;52.244;21.006;2024-01-15T03:54:24;19.13;;;10.10;;
39540;SDS011;25219;52.244;21.006;2024-01-15T03:56:49;20.27;;;10.13;;
39540;SDS011;25219;52.244;21.006;2024-01-15T03:59:14;20.00;;;9.23;;
39540;SDS011;25219;52.244;21.006;2024-01-15T04:01:39;21.67;;;10.13;;
39540;SDS011;25219;52.244;21.006;2024-01-15T04:04:04;21.42;;;10.13;;
39540;SDS011;25219;52.244;21.006;2024-01-15T04:06:30;18.77;;;8.80;;
39540;SDS011;25219;52.244;21.006;2024-01-15T04:08:55;17.38;;;9.02;;
39540;SDS011;25219;52.244;21.006;2024-01-15T04:11:20;19.27;;;9.97;;
39540;SDS011;25219;52.244;21.006;2024-01-15T04:13:47;18.42;;;7.97;;
39540;SDS011;25219;52.244;21.006;2024-01-15T04:16:12;17.35;;;8.65;;
39540;SDS011;25219;52.244;21.006;2024-01-15T04:18:37;15.45;;;8.57;;
39540;SDS011;25219;52.244;21.006;2024-01-15T04:21:04;15.82;;;8.05;;
39540;SDS011;25219;52.244;21.006;2024-01-15T04:23:29;16.88;;;8.63;;
39540;SDS011;25219;52.244;21.006;2024-01-15T04:25:54;15.63;;;7.77;;
39540;SDS011;25219;52.244;21.006;2024-01-15T04:28:19;17.40;;;8.17;;
39540;SDS011;25219;52.244;21.006;2024-01-15T04:30:45;14.83;;;7.63;;
39540;SDS011;25219;52.244;21.006;2024-01-15T04:33:10;17.37;;;8.70;;
39540;SDS011;25219;52.244;21.006;2024-01-15T04:35:35;19.20;;;7.80;;
39540;SDS011;25219;52.244;21.006;2024-01-15T04:38:00;20.27;;;9.13;;
39540;SDS011;25219;52.244;21.006;2024-01-15T04:40:25;13.53;;;7.77;;
39540;SDS011;25219;52.244;21.006;2024-01-15T04:42:52;15.00;;;7.57;;
39540;SDS011;25219;52.244;21.006;2024-01-15T04:45:18;16.38;;;7.78;;
39540;SDS011;25219;52.244;21.006;2024-01-15T04:47:43;19.45;;;8.63;;
39540;SDS011;25219;52.244;21.006;2024-01-15T04:50:09;15.98;;;8.15;;
39540;SDS011;25219;52.244;21.006;2024-01-15T04:52:34;14.02;;;7.60;;
39540;SDS011;25219;52.244;21.006;2024-01-15T04:54:59;16.73;;;7.57;;
39540;SDS011;25219;52.244;21.006;2024-01-15T04:57:24;14.17;;;8.37;;
39540;SDS011;25219;52.244;21.006;2024-01-15T04:59:49;17.13;;;8.07;;
39540;SDS011;25219;52.244;21.006;2024-01-15T05:02:15;11.63;;;6.67;;
39540;SDS011;25219;52.244;21.006;2024-01-15T05:04:40;10.23;;;6.47;;
39540;SDS011;25219;52.244;21.006;2024-01-15T05:07:05;13.05;;;7.35;;
39540;SDS011;25219;52.244;21.006;2024-01-15T05:09:31;15.68;;;7.30;;
39540;SDS011;25219;52.244;21.006;2024-01-15T05:11:56;14.05;;;7.25;;
39540;SDS011;25219;52.244;21.006;2024-01-15T05:14:21;15.07;;;7.53;;
39540;SDS011;25219;52.244;21.006;2024-01-15T05:16:47;13.17;;;7.23;;
39540;SDS011;25219;52.244;21.006;2024-01-15T05:19:12;17.30;;;8.18;;
39540;SDS011;25219;52.244;21.006;2024-01-15T05:21:38;15.63;;;7.53;;
39540;SDS011;25219;52.244;21.006;2024-01-15T05:24:03;16.23;;;7.28;;
39540;SDS011;25219;52.244;21.006;2024-01-15T05:26:28;15.40;;;7.47;;
39540;SDS011;25219;52.244;21.006;2024-01-15T05:28:53;15.10;;;7.53;;
39540;SDS011;25219;52.244;21.006;2024-01-15T05:31:19;12.35;;;7.35;;
39540;SDS011;25219;52.244;21.006;2024-01-15T05:33:44;15.90;;;7.25;;
39540;SDS011;25219;52.244;21.006;2024-01-15T05:36:09;14.38;;;7.45;;
39540;SDS011;25219;52.244;21.006;2024-01-15T05:38:35;12.10;;;7.72;;
39540;SDS011;25219;52.244;21.006;2024-01-15T05:41:00;15.68;;;8.25;;
39540;SDS011;25219;52.244;21.006;2024-01-15T05:43:25;14.35;;;6.93;;
39540;SDS011;25219;52.244;21.006;2024-01-15T05:45:50;15.30;;;7.90;;
39540;SDS011;25219;52.244;21.006;2024-01-15T05:48:15;12.95;;;6.88;;
39540;SDS011;25219;52.244;21.006;2024-01-15T05:50:41;17.15;;;7.70;;
39540;SDS011;25219;52.244;21.006;2024-01-15T05:53:06;15.05;;;7.38;;
39540;SDS011;25219;52.244;21.006;2024-01-15T05:55:31;17.73;;;7.33;;
39540;SDS011;25219;52.244;21.006;2024-01-15T05:57:56;12.37;;;7.83;;
39540;SDS011;25219;52.244;21.006;2024-01-15T06:00:22;17.80;;;7.63;;
39540;SDS011;25219;52.244;21.006;2024-01-15T06:02:47;14.57;;;7.97;;
39540;SDS011;25219;52.244;21.006;2024-01-15T06:05:12;14.93;;;7.57;;
39540;SDS011;25219;52.244;21.006;2024-01-15T06:07:37;13.07;;;7.60;;
39540;SDS011;25219;52.244;21.006;2024-01-15T06:10:03;14.80;;;7.43;;
39540;SDS011;25219;52.244;21.006;2024-01-15T06:12:29;14.98;;;7.85;;
39540;SDS011;25219;52.244;21.006;2024-01-15T06:14:55;12.88;;;7.43;;
39540;SDS011;25219;52.244;21.006;2024-01-15T06:17:20;13.67;;;7.43;;
39540;SDS011;25219;52.244;21.006;2024-01-15T06:19:45;12.10;;;7.30;;
39540;SDS011;25219;52.244;21.006;2024-01-15T06:22:10;15.10;;;7.33;;
39540;SDS011;25219;52.244;21.006;2024-01-15T06:24:35;13.57;;;6.97;;
39540;SDS011;25219;52.244;21.006;2024-01-15T06:27:01;12.90;;;7.13;;
39540;SDS011;25219;52.244;21.006;2024-01-15T06:29:26;15.87;;;8.20;;
39540;SDS011;25219;52.244;21.006;2024-01-15T06:31:52;15.55;;;8.13;;
39540;SDS011;25219;52.244;21.006;2024-01-15T06:34:17;12.63;;;7.07;;
39540;SDS011;25219;52.244;21.006;2024-01-15T06:36:43;14.15;;;7.65;;
39540;SDS011;25219;52.244;21.006;2024-01-15T06:39:08;16.05;;;7.60;;
39540;SDS011;25219;52.244;21.006;2024-01-15T06:41:35;14.80;;;7.65;;
39540;SDS011;25219;52.244;21.006;2024-01-15T06:44:00;13.93;;;7.60;;
39540;SDS011;25219;52.244;21.006;2024-01-15T06:46:26;15.90;;;7.95;;
39540;SDS011;25219;52.244;21.006;2024-01-15T06:48:51;13.40;;;7.60;;
39540;SDS011;25219;52.244;21.006;2024-01-15T06:51:16;13.63;;;7.55;;
39540;SDS011;25219;52.244;21.006;2024-01-15T06:53:41;13.25;;;8.00;;
39540;SDS011;25219;52.244;21.006;2024-01-15T06:56:06;13.70;;;7.22;;
39540;SDS011;25219;52.244;21.006;2024-01-15T06:58:32;16.27;;;7.82;;
39540;SDS011;25219;52.244;21.006;2024-01-15T07:00:57;16.00;;;8.57;;
39540;SDS011;25219;52.244;21.006;2024-01-15T07:03:22;13.20;;;7.97;;
39540;SDS011;25219;52.244;21.006;2024-01-15T07:05:48;15.40;;;7.97;;
39540;SDS011;25219;52.244;21.006;2024-01-15T07:08:13;14.00;;;7.40;;
39540;SDS011;25219;52.244;21.006;2024-01-15T07:10:38;13.63;;;7.72;;
39540;SDS011;25219;52.244;21.006;2024-01-15T07:13:03;14.73;;;7.70;;
39540;SDS011;25219;52.244;21.006;2024-01-15T07:15:30;14.30;;;7.88;;
39540;SDS011;25219;52.244;21.006;2024-01-15T07:17:55;17.00;;;8.45;;
39540;SDS011;25219;52.244;21.006;2024-01-15T07:20:21;12.85;;;7.93;;
39540;SDS011;25219;52.244;21.006;2024-01-15T07:22:46;14.13;;;7.17;;
39540;SDS011;25219;52.244;21.006;2024-01-15T07:25:12;22.63;;;8.32;;
39540;SDS011;25219;52.244;21.006;2024-01-15T07:27:37;16.17;;;7.50;;
39540;SDS011;25219;52.244;21.006;2024-01-15T07:30:03;16.15;;;7.85;;
39540;SDS011;25219;52.244;21.006;2024-01-15T07:32:30;13.93;;;7.75;;
39540;SDS011;25219;52.244;21.006;2024-01-15T07:34:56;18.92;;;7.63;;
39540;SDS011;25219;52.244;21.006;2024-01-15T07:37:21;15.25;;;8.50;;
39540;SDS011;25219;52.244;21.006;2024-01-15T07:39:48;16.75;;;8.32;;
39540;SDS011;25219;52.244;21.006;2024-01-15T07:42:13;15.10;;;7.50;;
39540;SDS011;25219;52.244;21.006;2024-01-15T07:44:38;18.30;;;8.38;;
39540;SDS011;25219;52.244;21.006;2024-01-15T07:47:04;16.90;;;7.65;;
39540;SDS011;25219;52.244;21.006;2024-01-15T07:49:29;18.38;;;9.00;;
39540;SDS011;25219;52.244;21.006;2024-01-15T07:51:54;16.73;;;7.83;;
39540;SDS011;25219;52.244;21.006;2024-01-15T07:54:19;14.65;;;8.43;;
39540;SDS011;25219;52.244;21.006;2024-01-15T07:56:54;15.07;;;7.82;;
39540;SDS011;25219;52.244;21.006;2024-01-15T07:59:20;13.73;;;7.50;;
39540;SDS011;25219;52.244;21.006;2024-01-15T08:01:45;14.60;;;7.20;;
39540;SDS011;25219;52.244;21.006;2024-01-15T08:04:10;13.33;;;6.83;;
39540;SDS011;25219;52.244;21.006;2024-01-15T08:06:37;11.77;;;7.30;;
39540;SDS011;25219;52.244;21.006;2024-01-15T08:09:03;12.68;;;7.28;;
39540;SDS011;25219;52.244;21.006;2024-01-15T08:11:29;12.10;;;7.35;;
39540;SDS011;25219;52.244;21.006;2024-01-15T08:13:54;15.45;;;7.00;;
39540;SDS011;25219;52.244;21.006;2024-01-15T08:16:19;13.52;;;7.60;;
39540;SDS011;25219;52.244;21.006;2024-01-15T08:18:44;11.43;;;6.43;;
39540;SDS011;25219;52.244;21.006;2024-01-15T08:21:10;14.50;;;7.50;;
39540;SDS011;25219;52.244;21.006;2024-01-15T08:23:35;13.73;;;6.90;;
39540;SDS011;25219;52.244;21.006;2024-01-15T08:26:00;17.27;;;7.10;;
39540;SDS011;25219;52.244;21.006;2024-01-15T08:28:25;16.53;;;7.47;;
39540;SDS011;25219;52.244;21.006;2024-01-15T08:30:51;12.40;;;6.82;;
39540;SDS011;25219;52.244;21.006;2024-01-15T08:33:16;13.30;;;7.47;;
39540;SDS011;25219;52.244;21.006;2024-01-15T08:35:41;12.77;;;7.30;;
39540;SDS011;25219;52.244;21.006;2024-01-15T08:38:06;12.27;;;6.43;;
39540;SDS011;25219;52.244;21.006;2024-01-15T08:43:34;11.65;;;6.13;;
39540;SDS011;25219;52.244;21.006;2024-01-15T08:45:59;12.82;;;6.68;;
39540;SDS011;25219;52.244;21.006;2024-01-15T08:48:25;10.90;;;6.40;;
39540;SDS011;25219;52.244;21.006;2024-01-15T08:50:52;12.52;;;6.10;;
39540;SDS011;25219;52.244;21.006;2024-01-15T08:53:17;14.93;;;6.03;;
39540;SDS011;25219;52.244;21.006;2024-01-15T08:55:43;14.70;;;6.33;;
39540;SDS011;25219;52.244;21.006;2024-01-15T08:58:09;14.35;;;6.28;;
39540;SDS011;25219;52.244;21.006;2024-01-15T09:00:34;10.57;;;5.95;;
39540;SDS011;25219;52.244;21.006;2024-01-15T09:03:00;10.95;;;6.57;;
39540;SDS011;25219;52.244;21.006;2024-01-15T09:05:25;12.65;;;6.45;;
39540;SDS011;25219;52.244;21.006;2024-01-15T09:07:50;14.07;;;6.97;;
39540;SDS011;25219;52.244;21.006;2024-01-15T09:10:17;14.23;;;6.32;;
39540;SDS011;25219;52.244;21.006;2024-01-15T09:12:42;12.68;;;5.90;;
39540;SDS011;25219;52.244;21.006;2024-01-15T09:15:07;10.30;;;6.10;;
39540;SDS011;25219;52.244;21.006;2024-01-15T09:17:33;11.05;;;6.13;;
39540;SDS011;25219;52.244;21.006;2024-01-15T09:19:58;10.65;;;6.22;;
39540;SDS011;25219;52.244;21.006;2024-01-15T09:22:24;10.48;;;5.88;;
39540;SDS011;25219;52.244;21.006;2024-01-15T09:24:49;13.50;;;6.47;;
39540;SDS011;25219;52.244;21.006;2024-01-15T09:27:14;13.63;;;5.97;;
39540;SDS011;25219;52.244;21.006;2024-01-15T09:29:40;13.75;;;5.85;;
39540;SDS011;25219;52.244;21.006;2024-01-15T09:32:07;10.05;;;5.75;;
39540;SDS011;25219;52.244;21.006;2024-01-15T09:34:32;8.18;;;5.28;;
39540;SDS011;25219;52.244;21.006;2024-01-15T09:36:58;9.88;;;5.18;;
39540;SDS011;25219;52.244;21.006;2024-01-15T09:39:27;10.30;;;5.07;;
39540;SDS011;25219;52.244;21.006;2024-01-15T09:41:53;8.15;;;5.13;;
39540;SDS011;25219;52.244;21.006;2024-01-15T09:44:19;10.20;;;5.20;;
39540;SDS011;25219;52.244;21.006;2024-01-15T09:46:44;9.80;;;5.05;;
39540;SDS011;25219;52.244;21.006;2024-01-15T09:49:10;11.60;;;4.82;;
39540;SDS011;25219;52.244;21.006;2024-01-15T09:51:36;9.90;;;4.78;;
39540;SDS011;25219;52.244;21.006;2024-01-15T09:54:02;10.73;;;4.68;;
39540;SDS011;25219;52.244;21.006;2024-01-15T09:56:29;8.70;;;4.85;;
39540;SDS011;25219;52.244;21.006;2024-01-15T09:58:54;8.25;;;4.47;;
39540;SDS011;25219;52.244;21.006;2024-01-15T10:01:22;12.75;;;4.95;;
39540;SDS011;25219;52.244;21.006;2024-01-15T10:03:47;7.97;;;4.10;;
39540;SDS011;25219;52.244;21.006;2024-01-15T10:06:16;9.33;;;4.17;;
39540;SDS011;25219;52.244;21.006;2024-01-15T10:08:50;8.25;;;3.95;;
39540;SDS011;25219;52.244;21.006;2024-01-15T10:11:16;10.38;;;4.90;;
39540;SDS011;25219;52.244;21.006;2024-01-15T10:13:43;11.18;;;4.50;;
39540;SDS011;25219;52.244;21.006;2024-01-15T10:16:08;9.25;;;4.40;;
39540;SDS011;25219;52.244;21.006;2024-01-15T10:18:33;12.10;;;3.73;;
39540;SDS011;25219;52.244;21.006;2024-01-15T10:20:58;12.83;;;4.63;;
39540;SDS011;25219;52.244;21.006;2024-01-15T10:23:24;14.90;;;4.18;;
39540;SDS011;25219;52.244;21.006;2024-01-15T10:25:49;9.05;;;4.13;;
39540;SDS011;25219;52.244;21.006;2024-01-15T10:28:16;10.73;;;4.88;;
39540;SDS011;25219;52.244;21.006;2024-01-15T10:30:44;13.45;;;5.00;;
39540;SDS011;25219;52.244;21.006;2024-01-15T10:33:09;10.80;;;4.25;;
39540;SDS011;25219;52.244;21.006;2024-01-15T10:35:34;8.43;;;4.50;;
39540;SDS011;25219;52.244;21.006;2024-01-15T10:38:00;10.35;;;4.97;;
39540;SDS011;25219;52.244;21.006;2024-01-15T10:40:25;11.07;;;5.28;;
39540;SDS011;25219;52.244;21.006;2024-01-15T10:42:51;8.70;;;4.95;;
39540;SDS011;25219;52.244;21.006;2024-01-15T10:45:16;8.63;;;4.85;;
39540;SDS011;25219;52.244;21.006;2024-01-15T10:47:42;12.25;;;5.13;;
39540;SDS011;25219;52.244;21.006;2024-01-15T10:50:07;11.55;;;4.82;;
39540;SDS011;25219;52.244;21.006;2024-01-15T10:52:36;9.27;;;4.78;;
39540;SDS011;25219;52.244;21.006;2024-01-15T10:55:06;10.27;;;4.82;;
39540;SDS011;25219;52.244;21.006;2024-01-15T10:57:32;11.33;;;5.07;;
39540;SDS011;25219;52.244;21.006;2024-01-15T11:00:01;10.32;;;4.78;;
39540;SDS011;25219;52.244;21.006;2024-01-15T11:02:30;14.02;;;4.80;;
39540;SDS011;25219;52.244;21.006;2024-01-15T11:04:56;8.93;;;4.85;;
39540;SDS011;25219;52.244;21.006;2024-01-15T11:07:21;9.23;;;5.07;;
39540;SDS011;25219;52.244;21.006;2024-01-15T11:09:46;12.02;;;4.65;;
39540;SDS011;25219;52.244;21.006;2024-01-15T11:12:12;15.48;;;5.85;;
39540;SDS011;25219;52.244;21.006;2024-01-15T11:14:50;9.25;;;5.68;;
39540;SDS011;25219;52.244;21.006;2024-01-15T11:17:16;10.95;;;4.95;;
39540;SDS011;25219;52.244;21.006;2024-01-15T11:19:45;11.15;;;4.63;;
39540;SDS011;25219;52.244;21.006;2024-01-15T11:27:43;10.77;;;4.60;;
39540;SDS011;25219;52.244;21.006;2024-01-15T11:30:09;9.75;;;4.82;;
39540;SDS011;25219;52.244;21.006;2024-01-15T11:32:35;15.88;;;8.27;;
39540;SDS011;25219;52.244;21.006;2024-01-15T11:35:01;12.32;;;4.97;;
39540;SDS011;25219;52.244;21.006;2024-01-15T11:37:28;11.15;;;5.75;;
39540;SDS011;25219;52.244;21.006;2024-01-15T11:39:54;14.23;;;5.70;;
39540;SDS011;25219;52.244;21.006;2024-01-15T11:42:20;12.32;;;4.88;;
39540;SDS011;25219;52.244;21.006;2024-01-15T11:44:45;12.65;;;4.93;;
39540;SDS011;25219;52.244;21.006;2024-01-15T11:47:11;15.13;;;5.18;;
39540;SDS011;25219;52.244;21.006;2024-01-15T11:52:22;12.93;;;4.90;;
39540;SDS011;25219;52.244;21.006;2024-01-15T11:57:27;13.13;;;5.63;;
39540;SDS011;25219;52.244;21.006;2024-01-15T11:59:54;13.15;;;5.15;;
39540;SDS011;25219;52.244;21.006;2024-01-15T12:02:19;12.00;;;5.38;;
39540;SDS011;25219;52.244;21.006;2024-01-15T12:04:45;10.32;;;4.88;;
39540;SDS011;25219;52.244;21.006;2024-01-15T12:07:10;13.95;;;5.45;;
39540;SDS011;25219;52.244;21.006;2024-01-15T12:09:39;9.95;;;4.95;;
39540;SDS011;25219;52.244;21.006;2024-01-15T12:12:07;16.73;;;5.78;;
39540;SDS011;25219;52.244;21.006;2024-01-15T12:14:36;17.45;;;5.88;;
39540;SDS011;25219;52.244;21.006;2024-01-15T12:17:03;13.77;;;5.72;;
39540;SDS011;25219;52.244;21.006;2024-01-15T12:19:28;10.27;;;5.80;;
39540;SDS011;25219;52.244;21.006;2024-01-15T12:21:54;15.73;;;5.77;;
39540;SDS011;25219;52.244;21.006;2024-01-15T12:24:19;11.85;;;4.70;;
39540;SDS011;25219;52.244;21.006;2024-01-15T12:26:45;12.40;;;5.80;;
39540;SDS011;25219;52.244;21.006;2024-01-15T12:29:13;10.32;;;5.47;;
39540;SDS011;25219;52.244;21.006;2024-01-15T12:31:38;13.05;;;6.15;;
39540;SDS011;25219;52.244;21.006;2024-01-15T12:34:03;10.02;;;5.63;;
39540;SDS011;25219;52.244;21.006;2024-01-15T12:36:32;13.93;;;5.77;;
39540;SDS011;25219;52.244;21.006;2024-01-15T12:39:00;12.85;;;6.20;;
39540;SDS011;25219;52.244;21.006;2024-01-15T12:41:25;13.57;;;5.80;;
39540;SDS011;25219;52.244;21.006;2024-01-15T12:43:50;12.70;;;6.50;;
39540;SDS011;25219;52.244;21.006;2024-01-15T12:46:16;15.32;;;6.82;;
39540;SDS011;25219;52.244;21.006;2024-01-15T12:48:41;13.83;;;6.53;;
39540;SDS011;25219;52.244;21.006;2024-01-15T12:51:07;17.60;;;7.30;;
39540;SDS011;25219;52.244;21.006;2024-01-15T12:53:32;13.15;;;6.63;;
39540;SDS011;25219;52.244;21.006;2024-01-15T12:55:58;15.90;;;7.63;;
39540;SDS011;25219;52.244;21.006;2024-01-15T12:58:23;14.73;;;7.03;;
39540;SDS011;25219;52.244;21.006;2024-01-15T13:00:48;13.80;;;6.82;;
39540;SDS011;25219;52.244;21.006;2024-01-15T13:03:13;14.93;;;6.45;;
39540;SDS011;25219;52.244;21.006;2024-01-15T13:05:39;15.43;;;6.55;;
39540;SDS011;25219;52.244;21.006;2024-01-15T13:08:05;16.10;;;5.97;;
39540;SDS011;25219;52.244;21.006;2024-01-15T13:10:31;11.02;;;6.07;;
39540;SDS011;25219;52.244;21.006;2024-01-15T13:12:56;16.38;;;6.25;;
39540;SDS011;25219;52.244;21.006;2024-01-15T13:15:21;17.93;;;6.93;;
39540;SDS011;25219;52.244;21.006;2024-01-15T13:17:47;13.73;;;6.07;;
39540;SDS011;25219;52.244;21.006;2024-01-15T13:20:12;12.43;;;6.33;;
39540;SDS011;25219;52.244;21.006;2024-01-15T13:22:37;12.57;;;5.97;;
39540;SDS011;25219;52.244;21.006;2024-01-15T13:25:04;16.58;;;6.63;;
39540;SDS011;25219;52.244;21.006;2024-01-15T13:27:31;11.93;;;6.28;;
39540;SDS011;25219;52.244;21.006;2024-01-15T13:29:57;16.17;;;7.17;;
39540;SDS011;25219;52.244;21.006;2024-01-15T13:32:23;14.32;;;7.30;;
39540;SDS011;25219;52.244;21.006;2024-01-15T13:34:50;15.13;;;6.70;;
39540;SDS011;25219;52.244;21.006;2024-01-15T13:37:15;12.90;;;6.37;;
39540;SDS011;25219;52.244;21.006;2024-01-15T13:39:40;13.13;;;6.28;;
39540;SDS011;25219;52.244;21.006;2024-01-15T13:42:06;12.67;;;7.10;;
39540;SDS011;25219;52.244;21.006;2024-01-15T13:44:31;14.75;;;6.90;;
39540;SDS011;25219;52.244;21.006;2024-01-15T13:46:56;18.43;;;6.97;;
39540;SDS011;25219;52.244;21.006;2024-01-15T13:49:22;16.48;;;6.72;;
39540;SDS011;25219;52.244;21.006;2024-01-15T13:51:47;15.95;;;7.00;;
39540;SDS011;25219;52.244;21.006;2024-01-15T13:54:12;13.63;;;6.40;;
39540;SDS011;25219;52.244;21.006;2024-01-15T13:56:38;16.83;;;6.93;;
39540;SDS011;25219;52.244;21.006;2024-01-15T13:59:03;16.83;;;6.73;;
39540;SDS011;25219;52.244;21.006;2024-01-15T14:01:29;18.52;;;6.85;;
39540;SDS011;25219;52.244;21.006;2024-01-15T14:03:54;15.38;;;6.82;;
39540;SDS011;25219;52.244;21.006;2024-01-15T14:06:19;15.85;;;6.93;;
39540;SDS011;25219;52.244;21.006;2024-01-15T14:08:45;21.58;;;7.68;;
39540;SDS011;25219;52.244;21.006;2024-01-15T14:11:10;15.15;;;6.45;;
39540;SDS011;25219;52.244;21.006;2024-01-15T14:13:35;17.95;;;6.85;;
39540;SDS011;25219;52.244;21.006;2024-01-15T14:16:01;14.73;;;6.72;;
39540;SDS011;25219;52.244;21.006;2024-01-15T14:18:26;16.48;;;5.80;;
39540;SDS011;25219;52.244;21.006;2024-01-15T14:20:51;13.10;;;6.25;;
39540;SDS011;25219;52.244;21.006;2024-01-15T14:23:18;18.45;;;6.75;;
39540;SDS011;25219;52.244;21.006;2024-01-15T14:25:44;14.20;;;6.28;;